sensor_id;sensor_type;location;lat;lon;timestamp;pressure;altitude;pressure_sealevel;temperature;humidity
38558;BME280;24333;42.626;23.308;2024-03-17T00:02:20;70773.81;;;-148.95;100.00
38558;BME280;24333;42.626;23.308;2024-03-17T00:04:46;70769.66;;;-148.95;100.00
38558;BME280;24333;42.626;23.308;2024-03-17T00:07:12;70769.66;;;-148.95;100.00
38558;BME280;24333;42.626;23.308;2024-03-17T00:09:38;70765.53;;;-148.95;100.00
38558;BME280;24333;42.626;23.308;2024-03-17T00:12:04;70765.53;;;-148.95;100.00
38558;BME280;24333;42.626;23.308;2024-03-17T00:14:29;70765.53;;;-148.95;100.00
38558;BME280;24333;42.626;23.308;2024-03-17T00:16:55;70773.81;;;-148.95;100.00
38558;BME280;24333;42.626;23.308;2024-03-17T00:19:20;70777.97;;;-148.95;100.00
38558;BME280;24333;42.626;23.308;2024-03-17T00:21:48;70788.34;;;-148.95;100.00
38558;BME280;24333;42.626;23.308;2024-03-17T00:24:15;70794.56;;;-148.95;100.00
38558;BME280;24333;42.626;23.308;2024-03-17T00:26:41;70794.56;;;-148.95;100.00
38558;BME280;24333;42.626;23.308;2024-03-17T00:29:06;70796.66;;;-148.95;100.00
38558;BME280;24333;42.626;23.308;2024-03-17T00:31:32;70807.03;;;-148.95;100.00
38558;BME280;24333;42.626;23.308;2024-03-17T00:33:57;70815.31;;;-148.95;100.00
38558;BME280;24333;42.626;23.308;2024-03-17T00:36:23;70823.63;;;-148.95;100.00
38558;BME280;24333;42.626;23.308;2024-03-17T00:38:48;70823.63;;;-148.95;100.00
38558;BME280;24333;42.626;23.308;2024-03-17T00:41:14;70823.63;;;-148.95;100.00
38558;BME280;24333;42.626;23.308;2024-03-17T00:43:39;70823.63;;;-148.95;100.00
38558;BME280;24333;42.626;23.308;2024-03-17T00:46:04;70829.84;;;-148.95;100.00
38558;BME280;24333;42.626;23.308;2024-03-17T00:48:30;70836.06;;;-148.95;100.00
38558;BME280;24333;42.626;23.308;2024-03-17T00:53:32;70840.22;;;-148.95;100.00
38558;BME280;24333;42.626;23.308;2024-03-17T01:19:14;70892.09;;;-148.95;100.00
38558;BME280;24333;42.626;23.308;2024-03-17T01:21:39;70902.47;;;-148.95;100.00
38558;BME280;24333;42.626;23.308;2024-03-17T01:24:04;70898.31;;;-148.95;100.00
38558;BME280;24333;42.626;23.308;2024-03-17T01:26:30;70894.16;;;-148.95;100.00
38558;BME280;24333;42.626;23.308;2024-03-17T01:28:55;70902.47;;;-148.95;100.00
38558;BME280;24333;42.626;23.308;2024-03-17T01:31:21;70910.78;;;-148.95;100.00
38558;BME280;24333;42.626;23.308;2024-03-17T01:33:46;70910.78;;;-148.95;100.00
38558;BME280;24333;42.626;23.308;2024-03-17T01:36:12;70910.78;;;-148.95;100.00
38558;BME280;24333;42.626;23.308;2024-03-17T01:38:37;70919.06;;;-148.95;100.00
38558;BME280;24333;42.626;23.308;2024-03-17T01:41:03;70921.16;;;-148.95;100.00
38558;BME280;24333;42.626;23.308;2024-03-17T01:43:30;70923.22;;;-148.95;100.00
38558;BME280;24333;42.626;23.308;2024-03-17T01:45:56;70914.91;;;-148.95;100.00
38558;BME280;24333;42.626;23.308;2024-03-17T01:48:22;70921.16;;;-148.95;100.00
38558;BME280;24333;42.626;23.308;2024-03-17T01:50:49;70921.16;;;-148.95;100.00
38558;BME280;24333;42.626;23.308;2024-03-17T01:53:17;70917.00;;;-148.95;100.00
38558;BME280;24333;42.626;23.308;2024-03-17T01:55:44;70914.91;;;-148.95;100.00
38558;BME280;24333;42.626;23.308;2024-03-17T01:58:10;70923.22;;;-148.95;100.00
38558;BME280;24333;42.626;23.308;2024-03-17T02:00:36;70919.06;;;-148.95;100.00
38558;BME280;24333;42.626;23.308;2024-03-17T02:03:09;70925.28;;;-148.95;100.00
38558;BME280;24333;42.626;23.308;2024-03-17T02:05:35;70925.28;;;-148.95;100.00
38558;BME280;24333;42.626;23.308;2024-03-17T02:08:03;70927.38;;;-148.95;100.00
38558;BME280;24333;42.626;23.308;2024-03-17T02:10:29;70929.44;;;-148.95;100.00
38558;BME280;24333;42.626;23.308;2024-03-17T02:12:54;70935.66;;;-148.95;100.00
38558;BME280;24333;42.626;23.308;2024-03-17T02:15:20;70935.66;;;-148.95;100.00
38558;BME280;24333;42.626;23.308;2024-03-17T02:17:45;70933.59;;;-148.95;100.00
38558;BME280;24333;42.626;23.308;2024-03-17T02:20:11;70941.91;;;-148.95;100.00
38558;BME280;24333;42.626;23.308;2024-03-17T02:22:37;70939.81;;;-148.95;100.00
38558;BME280;24333;42.626;23.308;2024-03-17T02:25:03;70941.91;;;-148.95;100.00
38558;BME280;24333;42.626;23.308;2024-03-17T02:27:29;70946.03;;;-148.95;100.00
38558;BME280;24333;42.626;23.308;2024-03-17T02:29:55;70943.97;;;-148.95;100.00
38558;BME280;24333;42.626;23.308;2024-03-17T02:32:20;70950.19;;;-148.95;100.00
38558;BME280;24333;42.626;23.308;2024-03-17T02:34:48;70952.28;;;-148.95;100.00
38558;BME280;24333;42.626;23.308;2024-03-17T02:37:14;70952.28;;;-148.95;100.00
38558;BME280;24333;42.626;23.308;2024-03-17T02:39:39;70946.03;;;-148.95;100.00
38558;BME280;24333;42.626;23.308;2024-03-17T02:42:09;70943.97;;;-148.95;100.00
38558;BME280;24333;42.626;23.308;2024-03-17T02:44:37;70943.97;;;-148.95;100.00
38558;BME280;24333;42.626;23.308;2024-03-17T02:47:04;70943.97;;;-148.95;100.00
38558;BME280;24333;42.626;23.308;2024-03-17T02:49:31;70948.13;;;-148.95;100.00
38558;BME280;24333;42.626;23.308;2024-03-17T02:52:06;70952.28;;;-148.95;100.00
38558;BME280;24333;42.626;23.308;2024-03-17T02:54:32;70946.03;;;-148.95;100.00
38558;BME280;24333;42.626;23.308;2024-03-17T02:56:58;70946.03;;;-148.95;100.00
38558;BME280;24333;42.626;23.308;2024-03-17T02:59:24;70943.97;;;-148.95;100.00
38558;BME280;24333;42.626;23.308;2024-03-17T03:01:49;70952.28;;;-148.95;100.00
38558;BME280;24333;42.626;23.308;2024-03-17T03:04:15;70958.50;;;-148.95;100.00
38558;BME280;24333;42.626;23.308;2024-03-17T03:06:40;70948.13;;;-148.95;100.00
38558;BME280;24333;42.626;23.308;2024-03-17T03:09:06;70952.28;;;-148.95;100.00
38558;BME280;24333;42.626;23.308;2024-03-17T03:11:38;70948.13;;;-148.95;100.00
38558;BME280;24333;42.626;23.308;2024-03-17T03:14:04;70948.13;;;-148.95;100.00
38558;BME280;24333;42.626;23.308;2024-03-17T03:16:30;70943.97;;;-148.95;100.00
38558;BME280;24333;42.626;23.308;2024-03-17T03:18:55;70941.91;;;-148.95;100.00
38558;BME280;24333;42.626;23.308;2024-03-17T03:21:21;70937.75;;;-148.95;100.00
38558;BME280;24333;42.626;23.308;2024-03-17T03:23:47;70937.75;;;-148.95;100.00
38558;BME280;24333;42.626;23.308;2024-03-17T03:26:12;70935.66;;;-148.95;100.00
38558;BME280;24333;42.626;23.308;2024-03-17T03:28:37;70935.66;;;-148.95;100.00
38558;BME280;24333;42.626;23.308;2024-03-17T03:31:03;70931.53;;;-148.95;100.00
38558;BME280;24333;42.626;23.308;2024-03-17T03:33:29;70937.75;;;-148.95;100.00
38558;BME280;24333;42.626;23.308;2024-03-17T03:35:55;70941.91;;;-148.95;100.00
38558;BME280;24333;42.626;23.308;2024-03-17T03:38:21;70941.91;;;-148.95;100.00
38558;BME280;24333;42.626;23.308;2024-03-17T03:40:47;70943.97;;;-148.95;100.00
38558;BME280;24333;42.626;23.308;2024-03-17T03:43:15;70946.03;;;-148.95;100.00
38558;BME280;24333;42.626;23.308;2024-03-17T03:45:41;70954.34;;;-148.95;100.00
38558;BME280;24333;42.626;23.308;2024-03-17T03:48:07;70960.56;;;-148.95;100.00
38558;BME280;24333;42.626;23.308;2024-03-17T03:50:38;70958.50;;;-148.95;100.00
38558;BME280;24333;42.626;23.308;2024-03-17T03:53:04;70964.72;;;-148.95;100.00
38558;BME280;24333;42.626;23.308;2024-03-17T03:55:30;70968.88;;;-148.95;100.00
38558;BME280;24333;42.626;23.308;2024-03-17T03:57:56;70970.94;;;-148.95;100.00
38558;BME280;24333;42.626;23.308;2024-03-17T04:00:22;70964.72;;;-148.95;100.00
38558;BME280;24333;42.626;23.308;2024-03-17T04:02:48;70968.88;;;-148.95;100.00
38558;BME280;24333;42.626;23.308;2024-03-17T04:05:18;70973.03;;;-148.95;100.00
38558;BME280;24333;42.626;23.308;2024-03-17T04:07:45;70970.94;;;-148.95;100.00
38558;BME280;24333;42.626;23.308;2024-03-17T04:10:12;70981.31;;;-148.95;100.00
38558;BME280;24333;42.626;23.308;2024-03-17T04:12:37;70987.56;;;-148.95;100.00
38558;BME280;24333;42.626;23.308;2024-03-17T04:15:03;70993.78;;;-148.95;100.00
38558;BME280;24333;42.626;23.308;2024-03-17T04:17:31;70997.94;;;-148.95;100.00
38558;BME280;24333;42.626;23.308;2024-03-17T04:19:58;70995.84;;;-148.95;100.00
38558;BME280;24333;42.626;23.308;2024-03-17T04:22:23;70997.94;;;-148.95;100.00
38558;BME280;24333;42.626;23.308;2024-03-17T04:24:49;70995.84;;;-148.95;100.00
38558;BME280;24333;42.626;23.308;2024-03-17T04:27:26;70997.94;;;-148.95;100.00
38558;BME280;24333;42.626;23.308;2024-03-17T04:29:52;70993.78;;;-148.95;100.00
38558;BME280;24333;42.626;23.308;2024-03-17T04:32:19;70989.63;;;-148.95;100.00
38558;BME280;24333;42.626;23.308;2024-03-17T04:34:44;70991.69;;;-148.95;100.00
38558;BME280;24333;42.626;23.308;2024-03-17T04:37:10;71004.16;;;-148.95;100.00
38558;BME280;24333;42.626;23.308;2024-03-17T04:39:42;71006.22;;;-148.95;100.00
38558;BME280;24333;42.626;23.308;2024-03-17T04:42:08;71004.16;;;-148.95;100.00
38558;BME280;24333;42.626;23.308;2024-03-17T04:44:34;71006.22;;;-148.95;100.00
38558;BME280;24333;42.626;23.308;2024-03-17T04:46:59;71000.00;;;-148.95;100.00
38558;BME280;24333;42.626;23.308;2024-03-17T04:49:25;70997.94;;;-148.95;100.00
38558;BME280;24333;42.626;23.308;2024-03-17T04:51:50;70993.78;;;-148.95;100.00
38558;BME280;24333;42.626;23.308;2024-03-17T04:54:15;70997.94;;;-148.95;100.00
38558;BME280;24333;42.626;23.308;2024-03-17T04:56:41;70993.78;;;-148.95;100.00
38558;BME280;24333;42.626;23.308;2024-03-17T04:59:06;70993.78;;;-148.95;100.00
38558;BME280;24333;42.626;23.308;2024-03-17T05:01:32;70989.63;;;-148.95;100.00
38558;BME280;24333;42.626;23.308;2024-03-17T05:04:02;70987.56;;;-148.95;100.00
38558;BME280;24333;42.626;23.308;2024-03-17T05:06:28;70985.47;;;-148.95;100.00
38558;BME280;24333;42.626;23.308;2024-03-17T05:08:54;70981.31;;;-148.95;100.00
38558;BME280;24333;42.626;23.308;2024-03-17T05:11:19;70970.94;;;-148.95;100.00
38558;BME280;24333;42.626;23.308;2024-03-17T05:13:45;70958.50;;;-148.95;100.00
38558;BME280;24333;42.626;23.308;2024-03-17T05:16:10;70952.28;;;-148.95;100.00
38558;BME280;24333;42.626;23.308;2024-03-17T05:18:36;70943.97;;;-148.95;100.00
38558;BME280;24333;42.626;23.308;2024-03-17T05:21:05;70935.66;;;-148.95;100.00
38558;BME280;24333;42.626;23.308;2024-03-17T05:23:34;70923.22;;;-148.95;100.00
38558;BME280;24333;42.626;23.308;2024-03-17T05:26:00;70917.00;;;-148.95;100.00
38558;BME280;24333;42.626;23.308;2024-03-17T05:28:28;70902.47;;;-148.95;100.00
38558;BME280;24333;42.626;23.308;2024-03-17T05:30:54;70890.03;;;-148.95;100.00
38558;BME280;24333;42.626;23.308;2024-03-17T05:33:21;70871.34;;;-148.95;100.00
38558;BME280;24333;42.626;23.308;2024-03-17T05:35:50;70852.66;;;-148.95;100.00
38558;BME280;24333;42.626;23.308;2024-03-17T05:38:19;70836.06;;;-148.95;100.00
38558;BME280;24333;42.626;23.308;2024-03-17T05:40:51;70823.63;;;-148.95;100.00
38558;BME280;24333;42.626;23.308;2024-03-17T05:43:17;70804.94;;;-148.95;100.00
38558;BME280;24333;42.626;23.308;2024-03-17T05:45:42;70798.72;;;-148.95;100.00
38558;BME280;24333;42.626;23.308;2024-03-17T05:48:09;70802.88;;;-148.95;100.00
38558;BME280;24333;42.626;23.308;2024-03-17T05:50:35;70788.34;;;-148.95;100.00
38558;BME280;24333;42.626;23.308;2024-03-17T05:53:00;70763.44;;;-148.95;100.00
38558;BME280;24333;42.626;23.308;2024-03-17T05:55:25;70759.28;;;-148.95;100.00
38558;BME280;24333;42.626;23.308;2024-03-17T05:57:51;70757.22;;;-148.95;100.00
38558;BME280;24333;42.626;23.308;2024-03-17T06:00:16;70755.16;;;-148.95;100.00
38558;BME280;24333;42.626;23.308;2024-03-17T06:02:42;70753.06;;;-148.95;100.00
38558;BME280;24333;42.626;23.308;2024-03-17T06:05:09;70757.22;;;-148.95;100.00
38558;BME280;24333;42.626;23.308;2024-03-17T06:07:37;70759.28;;;-148.95;100.00
38558;BME280;24333;42.626;23.308;2024-03-17T06:10:03;70748.91;;;-148.95;100.00
38558;BME280;24333;42.626;23.308;2024-03-17T06:12:28;70751.00;;;-148.95;100.00
38558;BME280;24333;42.626;23.308;2024-03-17T06:14:55;70742.69;;;-148.95;100.00
38558;BME280;24333;42.626;23.308;2024-03-17T06:17:21;70761.38;;;-148.95;100.00
38558;BME280;24333;42.626;23.308;2024-03-17T06:19:46;70742.69;;;-148.95;100.00
38558;BME280;24333;42.626;23.308;2024-03-17T06:22:12;70742.69;;;-148.95;100.00
38558;BME280;24333;42.626;23.308;2024-03-17T06:24:37;70744.78;;;-148.95;100.00
38558;BME280;24333;42.626;23.308;2024-03-17T06:27:03;70732.31;;;-148.95;100.00
38558;BME280;24333;42.626;23.308;2024-03-17T06:29:28;70724.03;;;-148.95;100.00
38558;BME280;24333;42.626;23.308;2024-03-17T06:31:54;70732.31;;;-148.95;100.00
38558;BME280;24333;42.626;23.308;2024-03-17T06:34:20;70724.03;;;-148.95;100.00
38558;BME280;24333;42.626;23.308;2024-03-17T06:36:47;70728.16;;;-148.95;100.00
38558;BME280;24333;42.626;23.308;2024-03-17T06:39:13;70713.66;;;-148.95;100.00
38558;BME280;24333;42.626;23.308;2024-03-17T06:41:42;70705.34;;;-148.95;100.00
38558;BME280;24333;42.626;23.308;2024-03-17T06:44:07;70719.88;;;-148.95;100.00
38558;BME280;24333;42.626;23.308;2024-03-17T06:46:33;70705.34;;;-148.95;100.00
38558;BME280;24333;42.626;23.308;2024-03-17T06:48:58;70719.88;;;-148.95;100.00
38558;BME280;24333;42.626;23.308;2024-03-17T06:51:25;70709.50;;;-148.95;100.00
38558;BME280;24333;42.626;23.308;2024-03-17T06:53:50;70715.72;;;-148.95;100.00
38558;BME280;24333;42.626;23.308;2024-03-17T06:56:15;70692.91;;;-148.95;100.00
38558;BME280;24333;42.626;23.308;2024-03-17T06:58:41;70686.66;;;-148.95;100.00
38558;BME280;24333;42.626;23.308;2024-03-17T07:01:07;70682.53;;;-148.95;100.00
38558;BME280;24333;42.626;23.308;2024-03-17T07:03:33;70697.03;;;-148.95;100.00
38558;BME280;24333;42.626;23.308;2024-03-17T07:06:00;70690.81;;;-148.95;100.00
38558;BME280;24333;42.626;23.308;2024-03-17T07:08:29;70676.28;;;-148.95;100.00
38558;BME280;24333;42.626;23.308;2024-03-17T07:11:03;70657.63;;;-148.95;100.00
38558;BME280;24333;42.626;23.308;2024-03-17T07:13:33;70641.03;;;-148.95;100.00
38558;BME280;24333;42.626;23.308;2024-03-17T07:16:00;70624.41;;;-148.95;100.00
38558;BME280;24333;42.626;23.308;2024-03-17T07:18:27;70616.13;;;-148.95;100.00
38558;BME280;24333;42.626;23.308;2024-03-17T07:20:55;70622.34;;;-148.95;100.00
38558;BME280;24333;42.626;23.308;2024-03-17T07:23:21;70614.06;;;-148.95;100.00
38558;BME280;24333;42.626;23.308;2024-03-17T07:25:58;70597.44;;;-148.95;100.00
38558;BME280;24333;42.626;23.308;2024-03-17T07:28:24;70582.94;;;-148.95;100.00
38558;BME280;24333;42.626;23.308;2024-03-17T07:30:50;70582.94;;;-148.95;100.00
38558;BME280;24333;42.626;23.308;2024-03-17T07:33:16;70576.69;;;-148.95;100.00
38558;BME280;24333;42.626;23.308;2024-03-17T07:35:58;70553.88;;;-148.95;99.72
38558;BME280;24333;42.626;23.308;2024-03-17T07:38:26;70528.97;;;-148.95;99.01
38558;BME280;24333;42.626;23.308;2024-03-17T07:41:06;70524.84;;;-148.95;96.75
38558;BME280;24333;42.626;23.308;2024-03-17T07:43:33;70510.31;;;-148.95;97.06
38558;BME280;24333;42.626;23.308;2024-03-17T07:46:00;70499.94;;;-148.95;96.12
38558;BME280;24333;42.626;23.308;2024-03-17T07:48:26;70493.72;;;-148.95;94.72
38558;BME280;24333;42.626;23.308;2024-03-17T07:50:56;70502.00;;;-148.95;94.89
38558;BME280;24333;42.626;23.308;2024-03-17T07:53:22;70526.91;;;-148.95;94.04
38558;BME280;24333;42.626;23.308;2024-03-17T07:55:47;70502.00;;;-148.95;93.10
38558;BME280;24333;42.626;23.308;2024-03-17T07:58:12;70489.56;;;-148.95;91.97
38558;BME280;24333;42.626;23.308;2024-03-17T08:00:38;70487.47;;;-148.95;92.11
38558;BME280;24333;42.626;23.308;2024-03-17T08:03:03;70499.94;;;-148.95;92.00
38558;BME280;24333;42.626;23.308;2024-03-17T08:05:29;70466.72;;;-148.95;89.23
38558;BME280;24333;42.626;23.308;2024-03-17T08:07:55;70435.63;;;-148.95;88.54
38558;BME280;24333;42.626;23.308;2024-03-17T08:10:20;70423.16;;;-148.95;83.57
38558;BME280;24333;42.626;23.308;2024-03-17T08:12:47;70416.94;;;-148.95;82.83
38558;BME280;24333;42.626;23.308;2024-03-17T08:15:12;70371.28;;;-148.95;81.33
38558;BME280;24333;42.626;23.308;2024-03-17T08:17:37;70358.84;;;-148.95;76.33
38558;BME280;24333;42.626;23.308;2024-03-17T08:20:03;70367.16;;;-148.95;77.48
38558;BME280;24333;42.626;23.308;2024-03-17T08:22:29;70383.75;;;-148.95;75.64
38558;BME280;24333;42.626;23.308;2024-03-17T08:24:55;70387.91;;;-148.95;78.13
38558;BME280;24333;42.626;23.308;2024-03-17T08:27:20;70402.41;;;-148.95;80.28
38558;BME280;24333;42.626;23.308;2024-03-17T08:29:46;70416.94;;;-148.95;78.61
38558;BME280;24333;42.626;23.308;2024-03-17T08:32:11;70439.75;;;-148.95;81.01
38558;BME280;24333;42.626;23.308;2024-03-17T08:34:37;70425.25;;;-148.95;81.49
38558;BME280;24333;42.626;23.308;2024-03-17T08:37:02;70448.06;;;-148.95;80.35
38558;BME280;24333;42.626;23.308;2024-03-17T08:39:31;70495.78;;;-148.95;83.88
38558;BME280;24333;42.626;23.308;2024-03-17T08:41:56;70464.66;;;-148.95;85.52
38558;BME280;24333;42.626;23.308;2024-03-17T08:44:21;70458.44;;;-148.95;85.09
38558;BME280;24333;42.626;23.308;2024-03-17T08:46:47;70458.44;;;-148.95;83.73
38558;BME280;24333;42.626;23.308;2024-03-17T08:49:12;70435.63;;;-148.95;83.62
38558;BME280;24333;42.626;23.308;2024-03-17T08:51:38;70429.38;;;-148.95;84.09
38558;BME280;24333;42.626;23.308;2024-03-17T08:54:03;70416.94;;;-148.95;82.25
38558;BME280;24333;42.626;23.308;2024-03-17T08:56:28;70412.78;;;-148.95;82.18
38558;BME280;24333;42.626;23.308;2024-03-17T08:58:54;70387.91;;;-148.95;83.02
38558;BME280;24333;42.626;23.308;2024-03-17T09:01:20;70392.03;;;-148.95;81.94
38558;BME280;24333;42.626;23.308;2024-03-17T09:03:45;70392.03;;;-148.95;79.00
38558;BME280;24333;42.626;23.308;2024-03-17T09:06:16;70365.06;;;-148.95;79.33
38558;BME280;24333;42.626;23.308;2024-03-17T09:08:44;70327.72;;;-148.95;78.93
38558;BME280;24333;42.626;23.308;2024-03-17T09:11:13;70311.13;;;-148.95;73.49
38558;BME280;24333;42.626;23.308;2024-03-17T09:13:39;70296.59;;;-148.95;74.51
38558;BME280;24333;42.626;23.308;2024-03-17T09:16:04;70284.16;;;-148.95;72.53
38558;BME280;24333;42.626;23.308;2024-03-17T09:18:32;70271.72;;;-148.95;70.13
38558;BME280;24333;42.626;23.308;2024-03-17T09:21:07;70282.09;;;-148.95;70.78
38558;BME280;24333;42.626;23.308;2024-03-17T09:23:34;70265.47;;;-148.95;73.31
38558;BME280;24333;42.626;23.308;2024-03-17T09:26:01;70280.00;;;-148.95;68.38
38558;BME280;24333;42.626;23.308;2024-03-17T09:28:28;70269.63;;;-148.95;70.18
38558;BME280;24333;42.626;23.308;2024-03-17T09:30:54;70263.41;;;-148.95;64.12
38558;BME280;24333;42.626;23.308;2024-03-17T09:33:24;70246.81;;;-148.95;65.12
38558;BME280;24333;42.626;23.308;2024-03-17T09:36:00;70232.28;;;-148.95;60.88
38558;BME280;24333;42.626;23.308;2024-03-17T09:38:27;70201.16;;;-148.95;58.07
38558;BME280;24333;42.626;23.308;2024-03-17T09:40:53;70192.88;;;-148.95;56.15
38558;BME280;24333;42.626;23.308;2024-03-17T09:43:22;70184.56;;;-148.95;55.41
38558;BME280;24333;42.626;23.308;2024-03-17T09:45:49;70174.19;;;-148.95;43.71
38558;BME280;24333;42.626;23.308;2024-03-17T09:48:16;70155.53;;;-148.95;47.84
38558;BME280;24333;42.626;23.308;2024-03-17T09:51:01;70134.78;;;-148.95;40.92
38558;BME280;24333;42.626;23.308;2024-03-17T09:53:29;70105.75;;;-148.95;39.83
38558;BME280;24333;42.626;23.308;2024-03-17T09:56:09;70080.84;;;-148.95;41.45
38558;BME280;24333;42.626;23.308;2024-03-17T09:58:35;70051.81;;;-148.95;40.56
38558;BME280;24333;42.626;23.308;2024-03-17T10:01:01;70039.34;;;-148.95;36.05
38558;BME280;24333;42.626;23.308;2024-03-17T10:06:14;69977.13;;;-148.95;40.23
38558;BME280;24333;42.626;23.308;2024-03-17T10:08:48;69985.41;;;-148.95;37.93
38558;BME280;24333;42.626;23.308;2024-03-17T10:11:15;69972.97;;;-148.95;36.20
38558;BME280;24333;42.626;23.308;2024-03-17T10:13:44;69972.97;;;-148.95;38.01
38558;BME280;24333;42.626;23.308;2024-03-17T10:16:23;69997.88;;;-148.95;35.88
38558;BME280;24333;42.626;23.308;2024-03-17T10:19:15;70039.34;;;-148.95;36.29
38558;BME280;24333;42.626;23.308;2024-03-17T10:21:42;70049.72;;;-148.95;37.83
38558;BME280;24333;42.626;23.308;2024-03-17T10:24:22;70043.50;;;-148.95;36.99
38558;BME280;24333;42.626;23.308;2024-03-17T10:26:52;70035.19;;;-148.95;38.12
38558;BME280;24333;42.626;23.308;2024-03-17T10:29:26;70055.94;;;-148.95;38.86
38558;BME280;24333;42.626;23.308;2024-03-17T10:31:56;70051.81;;;-148.95;39.06
38558;BME280;24333;42.626;23.308;2024-03-17T10:34:23;70066.31;;;-148.95;38.56
38558;BME280;24333;42.626;23.308;2024-03-17T10:37:14;70062.19;;;-148.95;39.43
38558;BME280;24333;42.626;23.308;2024-03-17T10:39:40;70024.84;;;-148.95;38.85
38558;BME280;24333;42.626;23.308;2024-03-17T10:42:09;69979.19;;;-148.95;38.31
38558;BME280;24333;42.626;23.308;2024-03-17T10:44:36;69985.41;;;-148.95;39.51
38558;BME280;24333;42.626;23.308;2024-03-17T10:47:03;69952.22;;;-148.95;39.14
38558;BME280;24333;42.626;23.308;2024-03-17T10:52:03;69958.44;;;-148.95;39.94
38558;BME280;24333;42.626;23.308;2024-03-17T10:54:30;69977.13;;;-148.95;40.96
38558;BME280;24333;42.626;23.308;2024-03-17T10:56:57;69995.78;;;-148.95;39.37
38558;BME280;24333;42.626;23.308;2024-03-17T10:59:40;69985.41;;;-148.95;39.40
38558;BME280;24333;42.626;23.308;2024-03-17T11:02:22;70010.31;;;-148.95;39.35
38558;BME280;24333;42.626;23.308;2024-03-17T11:04:54;70020.69;;;-148.95;39.09
38558;BME280;24333;42.626;23.308;2024-03-17T11:07:20;70031.06;;;-148.95;39.37
38558;BME280;24333;42.626;23.308;2024-03-17T11:09:48;70031.06;;;-148.95;38.96
38558;BME280;24333;42.626;23.308;2024-03-17T11:17:53;70026.91;;;-148.95;39.87
38558;BME280;24333;42.626;23.308;2024-03-17T11:20:26;70014.47;;;-148.95;40.06
38558;BME280;24333;42.626;23.308;2024-03-17T11:22:55;69985.41;;;-148.95;40.29
38558;BME280;24333;42.626;23.308;2024-03-17T11:28:04;69950.16;;;-148.95;41.54
38558;BME280;24333;42.626;23.308;2024-03-17T11:41:49;69983.34;;;-148.95;42.04
38558;BME280;24333;42.626;23.308;2024-03-17T11:47:00;70022.75;;;-148.95;42.96
38558;BME280;24333;42.626;23.308;2024-03-17T11:49:27;70026.91;;;-148.95;43.80
38558;BME280;24333;42.626;23.308;2024-03-17T11:51:55;70016.53;;;-148.95;43.12
38558;BME280;24333;42.626;23.308;2024-03-17T11:54:26;70016.53;;;-148.95;40.92
38558;BME280;24333;42.626;23.308;2024-03-17T11:56:56;70022.75;;;-148.95;40.71
38558;BME280;24333;42.626;23.308;2024-03-17T12:42:09;69952.22;;;-148.95;41.04
38558;BME280;24333;42.626;23.308;2024-03-17T12:47:18;70004.09;;;-148.95;42.33
38558;BME280;24333;42.626;23.308;2024-03-17T12:49:46;69999.94;;;-148.95;43.41
38558;BME280;24333;42.626;23.308;2024-03-17T12:52:26;69979.19;;;-148.95;43.96
38558;BME280;24333;42.626;23.308;2024-03-17T12:55:05;69972.97;;;-148.95;43.44
38558;BME280;24333;42.626;23.308;2024-03-17T13:25:46;69958.44;;;-148.95;48.62
38558;BME280;24333;42.626;23.308;2024-03-17T13:28:11;69943.94;;;-148.95;47.53
38558;BME280;24333;42.626;23.308;2024-03-17T13:30:37;69960.53;;;-148.95;48.20
38558;BME280;24333;42.626;23.308;2024-03-17T13:33:03;69950.16;;;-148.95;47.97
38558;BME280;24333;42.626;23.308;2024-03-17T13:35:36;69935.63;;;-148.95;48.57
38558;BME280;24333;42.626;23.308;2024-03-17T14:06:02;70035.19;;;-148.95;54.08
38558;BME280;24333;42.626;23.308;2024-03-17T14:08:27;70049.72;;;-148.95;54.36
38558;BME280;24333;42.626;23.308;2024-03-17T14:10:56;70089.16;;;-148.95;55.40
38558;BME280;24333;42.626;23.308;2024-03-17T14:13:22;70091.22;;;-148.95;57.02
38558;BME280;24333;42.626;23.308;2024-03-17T14:15:47;70091.22;;;-148.95;58.08
38558;BME280;24333;42.626;23.308;2024-03-17T14:18:13;70085.00;;;-148.95;58.51
38558;BME280;24333;42.626;23.308;2024-03-17T14:20:39;70087.06;;;-148.95;58.00
38558;BME280;24333;42.626;23.308;2024-03-17T14:23:04;70074.63;;;-148.95;57.51
38558;BME280;24333;42.626;23.308;2024-03-17T14:28:06;70089.16;;;-148.95;59.02
38558;BME280;24333;42.626;23.308;2024-03-17T16:11:40;70178.34;;;-148.95;65.20
38558;BME280;24333;42.626;23.308;2024-03-17T17:02:18;70255.13;;;-148.95;73.80
38558;BME280;24333;42.626;23.308;2024-03-17T17:04:45;70255.13;;;-148.95;73.74
38558;BME280;24333;42.626;23.308;2024-03-17T17:07:14;70253.03;;;-148.95;73.85
38558;BME280;24333;42.626;23.308;2024-03-17T17:09:41;70259.25;;;-148.95;73.10
38558;BME280;24333;42.626;23.308;2024-03-17T17:12:07;70275.84;;;-148.95;73.26
38558;BME280;24333;42.626;23.308;2024-03-17T17:14:34;70263.41;;;-148.95;73.34
38558;BME280;24333;42.626;23.308;2024-03-17T17:17:12;70265.47;;;-148.95;74.54
38558;BME280;24333;42.626;23.308;2024-03-17T17:22:13;70277.94;;;-148.95;75.32
38558;BME280;24333;42.626;23.308;2024-03-17T17:24:39;70271.72;;;-148.95;75.46
38558;BME280;24333;42.626;23.308;2024-03-17T17:27:05;70286.22;;;-148.95;76.60
38558;BME280;24333;42.626;23.308;2024-03-17T17:29:38;70280.00;;;-148.95;76.80
38558;BME280;24333;42.626;23.308;2024-03-17T17:32:07;70284.16;;;-148.95;77.59
38558;BME280;24333;42.626;23.308;2024-03-17T17:34:39;70290.38;;;-148.95;78.48
38558;BME280;24333;42.626;23.308;2024-03-17T17:37:05;70304.91;;;-148.95;79.60